Time;durP1;ratioP1;P1;durP2;ratioP2;P2;SDS_P1;SDS_P2;PMS_P1;PMS_P2;Temp;Humidity;BMP_temperature;BMP_pressure;BME280_temperature;BME280_humidity;BME280_pressure;Samples;Min_cycle;Max_cycle;Signal;HPM_P1;HPM_P2
2022/07/21 00:00:23;;;;;;;39.85;28.80;;;;;;;26.34;58.89;101789.63;5032725;28;20095;-69
2022/07/21 00:02:50;;;;;;;39.22;27.85;;;;;;;26.22;59.22;101786.56;5032806;28;20037;-71
2022/07/21 00:05:16;;;;;;;42.38;28.08;;;;;;;26.38;59.36;101780.41;5017459;28;20038;-69
2022/07/21 00:07:42;;;;;;;38.80;28.70;;;;;;;26.04;60.44;101769.78;5012665;28;20089;-71
2022/07/21 00:10:08;;;;;;;36.17;29.58;;;;;;;25.65;61.54;101768.63;5013330;28;20466;-70
2022/07/21 00:12:34;;;;;;;40.38;29.30;;;;;;;26.15;60.22;101767.66;5012720;28;20045;-70
2022/07/21 00:14:59;;;;;;;36.95;27.52;;;;;;;25.71;61.54;101770.97;5010659;28;20061;-70
2022/07/21 00:17:25;;;;;;;39.83;31.63;;;;;;;26.13;60.28;101766.34;5012448;28;20247;-72
2022/07/21 00:19:50;;;;;;;38.67;29.08;;;;;;;25.93;61.10;101762.84;5023718;28;20034;-70
2022/07/21 00:22:16;;;;;;;37.97;28.90;;;;;;;25.70;61.89;101766.59;5014027;28;20032;-70
2022/07/21 00:24:41;;;;;;;32.15;28.25;;;;;;;26.38;59.40;101763.88;5031488;28;20037;-72
2022/07/21 00:27:06;;;;;;;38.08;28.17;;;;;;;26.17;59.79;101762.66;5031679;28;20509;-71
2022/07/21 00:29:32;;;;;;;39.35;28.17;;;;;;;26.49;58.85;101757.03;5031569;28;20029;-69
2022/07/21 00:31:59;;;;;;;34.72;28.27;;;;;;;26.07;61.04;101760.94;5031497;28;20064;-69
2022/07/21 00:34:25;;;;;;;38.90;28.63;;;;;;;26.07;60.22;101762.88;5031779;28;20080;-69
2022/07/21 00:36:50;;;;;;;35.05;27.63;;;;;;;26.01;60.90;101770.41;5031776;28;20041;-71
2022/07/21 00:39:16;;;;;;;40.20;28.23;;;;;;;26.40;59.49;101766.31;5013534;28;20489;-70
2022/07/21 00:41:41;;;;;;;35.08;27.77;;;;;;;26.23;59.91;101764.19;5031132;28;20037;-71
2022/07/21 00:44:19;;;;;;;39.40;28.40;;;;;;;26.40;59.72;101767.13;5032065;28;20088;-70
2022/07/21 00:46:44;;;;;;;42.63;29.42;;;;;;;26.34;59.52;101767.56;5031778;28;20044;-70
2022/07/21 00:49:10;;;;;;;34.83;27.20;;;;;;;26.31;60.37;101770.91;5031721;28;20559;-70
2022/07/21 00:51:35;;;;;;;36.38;27.30;;;;;;;26.42;59.06;101778.66;5031919;28;20034;-69
2022/07/21 00:54:01;;;;;;;40.13;27.67;;;;;;;26.74;58.81;101777.72;5031469;28;20046;-69
2022/07/21 00:56:26;;;;;;;36.00;27.38;;;;;;;26.83;58.70;101773.09;5031551;28;20076;-69
2022/07/21 00:58:52;;;;;;;37.35;26.90;;;;;;;26.86;58.14;101772.47;5031548;28;20114;-68
2022/07/21 01:01:17;;;;;;;35.13;27.10;;;;;;;26.85;58.19;101779.94;5032702;28;20033;-67
2022/07/21 01:03:42;;;;;;;33.38;25.48;;;;;;;26.86;58.80;101778.00;5028762;28;20046;-67
2022/07/21 01:06:08;;;;;;;38.90;25.52;;;;;;;26.88;58.15;101767.47;5011650;28;20034;-68
2022/07/21 01:08:33;;;;;;;34.50;24.95;;;;;;;26.49;59.36;101767.22;5011548;28;20045;-68
2022/07/21 01:10:59;;;;;;;37.10;26.13;;;;;;;26.80;58.58;101768.19;5011693;28;20038;-67
2022/07/21 01:13:25;;;;;;;32.95;25.33;;;;;;;26.79;58.36;101758.31;5012232;28;20034;-68
2022/07/21 01:15:51;;;;;;;33.33;25.50;;;;;;;26.67;58.56;101764.31;5021024;28;20394;-68
2022/07/21 01:18:16;;;;;;;38.28;25.25;;;;;;;26.68;58.45;101757.69;5031411;28;20167;-69
2022/07/21 01:20:50;;;;;;;30.63;23.80;;;;;;;26.56;59.08;101756.59;5031061;28;20370;-69
2022/07/21 01:23:15;;;;;;;31.45;24.58;;;;;;;26.81;58.59;101758.81;5031194;28;20512;-66
2022/07/21 01:25:50;;;;;;;34.28;23.15;;;;;;;27.00;57.22;101764.16;5030952;28;20045;-68
2022/07/21 01:28:15;;;;;;;32.53;24.63;;;;;;;26.69;57.62;101764.81;5031633;28;20029;-67
2022/07/21 01:30:41;;;;;;;29.38;24.13;;;;;;;26.40;58.55;101766.31;5030704;28;20048;-69
2022/07/21 01:33:07;;;;;;;36.03;25.40;;;;;;;26.40;58.46;101756.09;5030935;28;20113;-67
2022/07/21 01:35:32;;;;;;;32.63;23.83;;;;;;;26.34;58.25;101754.56;5030654;28;20049;-67
2022/07/21 01:37:59;;;;;;;29.70;23.90;;;;;;;26.49;57.93;101753.44;5030900;28;20048;-68
2022/07/21 01:43:08;;;;;;;33.47;24.58;;;;;;;26.65;58.00;101740.94;5030931;28;20040;-67
2022/07/21 01:45:34;;;;;;;31.17;22.95;;;;;;;26.72;57.61;101741.34;5030596;28;20405;-68
2022/07/21 01:47:59;;;;;;;30.08;24.10;;;;;;;26.04;59.92;101738.66;5030591;28;20041;-67
2022/07/21 01:50:28;;;;;;;30.52;24.25;;;;;;;26.18;59.40;101747.75;5030551;28;20105;-67
2022/07/21 01:52:58;;;;;;;36.38;25.30;;;;;;;26.38;58.83;101732.75;5030548;28;20037;-67
2022/07/21 01:55:24;;;;;;;30.27;25.70;;;;;;;26.54;58.08;101715.53;5031113;28;20033;-66
2022/07/21 01:57:50;;;;;;;30.90;23.75;;;;;;;26.56;57.96;101715.22;5030800;28;20032;-69
2022/07/21 02:00:16;;;;;;;30.38;26.10;;;;;;;26.59;58.68;101720.97;5011773;28;20037;-68
2022/07/21 02:02:42;;;;;;;32.28;25.80;;;;;;;26.64;59.04;101720.81;5030294;28;20048;-68
2022/07/21 02:05:08;;;;;;;36.88;26.95;;;;;;;26.68;58.35;101721.00;5016129;28;20046;-67
2022/07/21 02:07:33;;;;;;;39.00;27.20;;;;;;;26.65;59.04;101724.41;5010608;28;20041;-68
2022/07/21 02:09:59;;;;;;;33.15;28.75;;;;;;;26.73;58.32;101723.69;5010915;28;20045;-67
2022/07/21 02:12:24;;;;;;;36.95;28.77;;;;;;;26.62;58.88;101723.06;5022053;28;20448;-68
2022/07/21 02:14:49;;;;;;;40.05;32.95;;;;;;;26.68;58.87;101732.03;5030497;28;20405;-68
2022/07/21 02:17:15;;;;;;;41.97;30.80;;;;;;;26.87;58.75;101741.81;5029908;28;20065;-68
2022/07/21 02:19:40;;;;;;;40.33;31.73;;;;;;;26.56;59.16;101740.84;5029854;28;20570;-67
2022/07/21 02:22:06;;;;;;;42.35;31.77;;;;;;;26.74;59.51;101737.16;5030726;28;20053;-68
2022/07/21 02:24:31;;;;;;;40.20;32.25;;;;;;;26.83;58.27;101751.84;5029632;28;20111;-69
2022/07/21 02:26:57;;;;;;;47.00;32.67;;;;;;;26.83;58.43;101748.25;5012218;28;20053;-68
2022/07/21 02:29:22;;;;;;;42.35;33.03;;;;;;;26.72;59.81;101752.38;5029995;28;20531;-68
2022/07/21 02:31:48;;;;;;;36.15;30.27;;;;;;;26.73;59.13;101757.59;5030461;28;20482;-68
2022/07/21 02:34:13;;;;;;;39.13;30.92;;;;;;;26.27;60.27;101762.47;5030351;28;20029;-67
2022/07/21 02:36:39;;;;;;;40.40;30.20;;;;;;;26.56;58.98;101753.81;5030088;28;20048;-69
2022/07/21 02:39:05;;;;;;;37.47;31.40;;;;;;;26.47;59.13;101755.69;5029686;28;20037;-68
2022/07/21 02:41:30;;;;;;;38.42;30.17;;;;;;;26.70;58.81;101746.34;5029871;28;20037;-67
2022/07/21 02:43:56;;;;;;;35.60;29.55;;;;;;;26.60;58.29;101741.06;5029976;28;20088;-69
2022/07/21 02:46:21;;;;;;;39.13;30.13;;;;;;;26.50;58.64;101733.00;5030165;28;20493;-67
2022/07/21 02:48:47;;;;;;;39.65;28.98;;;;;;;26.46;58.97;101730.06;5030246;28;20103;-68
2022/07/21 02:51:12;;;;;;;35.35;28.33;;;;;;;26.76;57.86;101734.09;5029522;28;20044;-67
2022/07/21 02:53:37;;;;;;;37.83;28.02;;;;;;;26.79;56.59;101727.97;5029600;28;20041;-68
2022/07/21 02:56:03;;;;;;;36.30;29.92;;;;;;;26.72;57.51;101728.38;5029285;28;20056;-68
2022/07/21 02:58:29;;;;;;;37.15;28.75;;;;;;;26.54;58.58;101714.72;5029487;28;20164;-68
2022/07/21 03:01:03;;;;;;;33.35;28.48;;;;;;;26.70;58.21;101721.50;5030293;28;20470;-69
2022/07/21 03:03:32;;;;;;;34.60;28.25;;;;;;;26.63;58.89;101723.91;5029305;28;20029;-67
2022/07/21 03:05:57;;;;;;;33.53;28.70;;;;;;;26.79;57.76;101723.25;5029375;28;20041;-69
2022/07/21 03:08:24;;;;;;;36.40;28.60;;;;;;;26.91;57.05;101706.97;5029242;28;20041;-68
2022/07/21 03:10:50;;;;;;;34.50;28.83;;;;;;;26.91;57.14;101708.88;5029329;28;20516;-69
2022/07/21 03:13:16;;;;;;;34.00;28.63;;;;;;;26.59;57.84;101706.34;5012022;28;20021;-68
2022/07/21 03:15:42;;;;;;;38.88;29.23;;;;;;;26.62;59.04;101712.03;5029229;28;20413;-67
2022/07/21 03:18:08;;;;;;;36.13;27.60;;;;;;;26.51;59.09;101715.34;5029272;28;20036;-69
2022/07/21 03:20:36;;;;;;;39.40;29.25;;;;;;;26.46;59.11;101713.50;5029356;28;20052;-67
2022/07/21 03:23:02;;;;;;;31.48;26.33;;;;;;;26.68;58.38;101721.00;5029317;28;20041;-70
2022/07/21 03:25:27;;;;;;;34.88;27.33;;;;;;;26.36;59.27;101716.50;5029044;28;20034;-70
2022/07/21 03:27:53;;;;;;;31.33;25.88;;;;;;;26.67;57.60;101717.44;5012369;28;20057;-68
2022/07/21 03:30:18;;;;;;;31.33;26.27;;;;;;;26.73;57.76;101716.22;5029742;28;20049;-69
2022/07/21 03:32:44;;;;;;;38.83;26.90;;;;;;;26.33;58.85;101719.06;5028932;28;20622;-69
2022/07/21 03:35:12;;;;;;;31.65;25.92;;;;;;;26.46;58.44;101704.41;5029159;28;20124;-69
2022/07/21 03:37:42;;;;;;;32.63;24.33;;;;;;;26.56;57.89;101705.00;5029292;28;20462;-68
2022/07/21 03:40:10;;;;;;;26.98;24.05;;;;;;;26.49;58.85;101706.56;5029435;28;20060;-69
2022/07/21 03:42:36;;;;;;;34.35;25.65;;;;;;;26.15;58.77;101700.72;5028719;28;20468;-68
2022/07/21 03:45:01;;;;;;;29.77;24.55;;;;;;;26.39;57.87;101707.63;5028424;28;20034;-69
2022/07/21 03:47:27;;;;;;;27.73;24.52;;;;;;;26.47;57.56;101701.38;5028436;28;20105;-72
2022/07/21 03:49:52;;;;;;;30.13;23.52;;;;;;;26.40;57.97;101702.91;5028378;28;20080;-72
2022/07/21 03:52:18;;;;;;;26.55;22.65;;;;;;;26.52;57.26;101701.25;5029986;28;20033;-71
2022/07/21 03:54:43;;;;;;;31.42;23.70;;;;;;;26.39;57.59;101699.34;5029574;28;20084;-71
2022/07/21 03:57:08;;;;;;;25.83;21.42;;;;;;;26.51;57.35;101702.38;5029541;28;20041;-70
2022/07/21 03:59:34;;;;;;;25.77;21.63;;;;;;;26.38;57.74;101703.22;5029477;28;20029;-71
2022/07/21 04:01:59;;;;;;;28.10;23.30;;;;;;;26.03;59.00;101706.72;5028057;28;20092;-71
2022/07/21 04:04:25;;;;;;;25.98;21.15;;;;;;;25.87;58.69;101697.13;5029748;28;20037;-71
2022/07/21 04:06:50;;;;;;;29.00;20.88;;;;;;;25.68;59.04;101697.25;5029581;28;20038;-71
2022/07/21 04:09:17;;;;;;;24.30;20.52;;;;;;;26.19;57.75;101698.97;5007938;28;20037;-70
2022/07/21 04:11:42;;;;;;;24.10;21.05;;;;;;;26.15;57.91;101696.03;5028742;28;20517;-70
2022/07/21 04:14:08;;;;;;;24.83;19.75;;;;;;;26.13;57.56;101695.50;4999107;28;20034;-72
2022/07/21 04:16:33;;;;;;;24.33;19.90;;;;;;;26.18;57.21;101698.16;5026775;28;20481;-71
2022/07/21 04:18:58;;;;;;;22.42;19.85;;;;;;;26.27;57.21;101696.31;5029169;28;20021;-71
2022/07/21 04:21:24;;;;;;;22.90;19.70;;;;;;;26.39;56.75;101695.78;5028796;28;20045;-71
2022/07/21 04:23:49;;;;;;;24.38;19.27;;;;;;;25.76;58.88;101702.03;5031262;28;20049;-71
2022/07/21 04:26:15;;;;;;;22.83;19.23;;;;;;;25.99;58.30;101701.00;5014501;28;20524;-72
2022/07/21 04:28:40;;;;;;;24.13;20.70;;;;;;;26.30;58.26;101700.41;5032531;28;20038;-72
2022/07/21 04:31:06;;;;;;;24.95;20.75;;;;;;;25.94;59.19;101709.41;5032637;28;20045;-71
2022/07/21 04:33:31;;;;;;;24.40;20.35;;;;;;;25.97;57.91;101702.44;5032233;28;20121;-72
2022/07/21 04:35:57;;;;;;;28.38;21.25;;;;;;;25.30;60.31;101697.69;5032196;28;20133;-70
2022/07/21 04:38:22;;;;;;;25.58;20.67;;;;;;;25.43;59.48;101708.75;5032290;28;20045;-70
2022/07/21 04:40:47;;;;;;;25.15;19.33;;;;;;;25.36;60.79;101705.53;5032403;28;20048;-71
2022/07/21 04:43:13;;;;;;;25.13;21.17;;;;;;;25.65;60.39;101708.84;5032426;28;20024;-71
2022/07/21 04:45:38;;;;;;;39.90;21.10;;;;;;;25.24;60.97;101707.94;5014023;28;20132;-71
2022/07/21 04:48:04;;;;;;;27.17;21.35;;;;;;;25.70;59.56;101713.44;5032237;28;20172;-71
2022/07/21 04:50:29;;;;;;;28.13;21.50;;;;;;;25.70;59.33;101718.97;5032367;28;20037;-70
2022/07/21 04:52:55;;;;;;;25.50;20.50;;;;;;;25.79;58.55;101712.44;5032099;28;20033;-71
2022/07/21 04:55:21;;;;;;;25.27;20.58;;;;;;;26.04;58.16;101720.19;5033213;28;20033;-71
2022/07/21 04:57:49;;;;;;;23.15;19.85;;;;;;;26.04;58.46;101722.94;5032254;28;20032;-71
2022/07/21 05:00:17;;;;;;;28.73;21.35;;;;;;;25.97;58.16;101717.03;5031745;28;20065;-72
2022/07/21 05:02:44;;;;;;;25.13;20.80;;;;;;;25.60;58.99;101721.91;5032021;28;20037;-71
2022/07/21 05:05:10;;;;;;;22.58;20.05;;;;;;;25.24;59.83;101719.75;5031507;28;20126;-71
2022/07/21 05:07:36;;;;;;;24.85;21.02;;;;;;;25.36;59.90;101719.28;5031458;28;20137;-72
2022/07/21 05:10:06;;;;;;;26.50;21.55;;;;;;;25.53;59.16;101722.31;5031775;28;20037;-71
2022/07/21 05:12:32;;;;;;;28.88;22.23;;;;;;;24.96;60.75;101725.50;5031387;28;20033;-72
2022/07/21 05:14:57;;;;;;;28.50;23.63;;;;;;;25.45;59.56;101724.94;5031168;28;20033;-70
2022/07/21 05:17:23;;;;;;;30.85;22.88;;;;;;;24.57;62.11;101709.25;5031277;28;20481;-72
2022/07/21 05:19:50;;;;;;;27.95;23.55;;;;;;;25.24;59.88;101707.94;5031367;28;20029;-71
2022/07/21 05:22:16;;;;;;;34.78;24.92;;;;;;;24.72;61.80;101705.47;5014458;28;20048;-70
2022/07/21 05:24:42;;;;;;;29.75;24.15;;;;;;;25.35;59.45;101697.56;5031161;28;20034;-71
2022/07/21 05:27:07;;;;;;;28.05;23.17;;;;;;;25.07;60.56;101693.94;5031369;28;20508;-72
2022/07/21 05:29:32;;;;;;;30.90;24.98;;;;;;;24.75;61.13;101689.22;5013343;28;20040;-71
2022/07/21 05:31:58;;;;;;;38.88;28.02;;;;;;;25.29;59.50;101685.84;5013707;28;20033;-72
2022/07/21 05:34:24;;;;;;;34.95;26.23;;;;;;;25.04;60.20;101672.56;5031462;28;20076;-72
2022/07/21 05:36:49;;;;;;;37.15;26.63;;;;;;;25.47;58.57;101653.91;5031256;28;20367;-70
2022/07/21 05:39:15;;;;;;;38.70;28.00;;;;;;;25.38;58.64;101644.66;5012806;28;20048;-68
2022/07/21 05:41:40;;;;;;;40.50;28.30;;;;;;;25.44;59.19;101637.97;5030598;28;20038;-70
2022/07/21 05:44:05;;;;;;;39.42;28.50;;;;;;;25.74;58.10;101631.88;5030666;28;20154;-69
2022/07/21 05:46:31;;;;;;;40.03;30.13;;;;;;;25.28;58.77;101621.75;5030308;28;20051;-68
2022/07/21 05:48:56;;;;;;;42.83;29.45;;;;;;;24.95;59.73;101619.34;5030864;28;20076;-68
2022/07/21 05:51:22;;;;;;;37.90;29.67;;;;;;;24.54;61.49;101615.59;5012611;28;20033;-69
2022/07/21 05:53:47;;;;;;;45.50;31.48;;;;;;;24.94;60.10;101613.00;5030798;28;20034;-67
2022/07/21 05:56:12;;;;;;;49.42;31.35;;;;;;;24.53;62.00;101606.53;5030060;28;20033;-68
2022/07/21 05:58:38;;;;;;;42.95;31.13;;;;;;;25.22;59.58;101611.13;5030184;28;20025;-67
2022/07/21 06:01:11;;;;;;;44.67;30.98;;;;;;;24.79;60.90;101612.47;5030907;28;20030;-67
2022/07/21 06:03:42;;;;;;;39.13;30.13;;;;;;;25.00;59.95;101633.81;5028426;28;20117;-69
2022/07/21 06:06:08;;;;;;;;;;;;;;;25.06;60.91;101653.81;5011124;28;20038;-68
2022/07/21 06:08:33;;;;;;;43.25;33.03;;;;;;;25.17;61.04;101660.75;5010378;28;19960;-68
2022/07/21 06:10:59;;;;;;;44.55;32.70;;;;;;;25.97;58.24;101666.63;5010547;28;20042;-69
2022/07/21 06:13:24;;;;;;;43.80;33.30;;;;;;;26.10;57.81;101669.38;5010695;28;20022;-69
2022/07/21 06:15:50;;;;;;;48.47;31.63;;;;;;;26.45;57.61;101669.72;5026631;28;20037;-68
2022/07/21 06:18:15;;;;;;;44.42;31.90;;;;;;;26.07;58.31;101686.53;5029984;28;20037;-69
2022/07/21 06:20:42;;;;;;;42.38;32.30;;;;;;;26.50;57.40;101694.41;5029285;28;20045;-68
2022/07/21 06:23:07;;;;;;;43.63;31.77;;;;;;;26.11;58.36;101692.25;5028390;28;20051;-68
2022/07/21 06:25:33;;;;;;;43.25;33.33;;;;;;;25.82;58.68;101694.50;5028265;28;20030;-70
2022/07/21 06:27:58;;;;;;;50.58;31.25;;;;;;;26.24;57.15;101699.66;5029020;28;20040;-68
2022/07/21 06:30:24;;;;;;;44.75;32.15;;;;;;;26.00;57.50;101704.59;5028506;28;20029;-69
2022/07/21 06:32:49;;;;;;;42.40;32.88;;;;;;;26.90;55.24;101710.84;5028802;28;20033;-68
2022/07/21 06:35:15;;;;;;;43.50;32.55;;;;;;;26.78;56.06;101718.03;5028314;28;20104;-68
2022/07/21 06:37:45;;;;;;;45.58;35.42;;;;;;;26.76;56.01;101731.34;5028151;28;20033;-68
2022/07/21 06:40:11;;;;;;;45.95;34.47;;;;;;;26.93;55.03;101726.78;5029179;28;20029;-68
2022/07/21 06:42:37;;;;;;;49.17;34.67;;;;;;;26.91;55.14;101740.06;5010698;28;20061;-68
2022/07/21 06:45:03;;;;;;;45.97;36.35;;;;;;;26.86;55.21;101740.19;5024001;28;20034;-68
2022/07/21 06:47:28;;;;;;;55.38;37.22;;;;;;;26.90;55.16;101741.19;5028797;28;20037;-68
2022/07/21 06:49:54;;;;;;;49.53;38.20;;;;;;;25.46;58.90;101727.38;5028255;28;20048;-69
2022/07/21 06:52:19;;;;;;;49.78;37.90;;;;;;;26.07;57.21;101708.59;5029395;28;20025;-68
2022/07/21 06:54:45;;;;;;;50.33;38.53;;;;;;;26.20;56.73;101709.69;5028122;28;20041;-68
2022/07/21 06:57:10;;;;;;;52.47;37.65;;;;;;;26.33;56.25;101708.84;5028041;28;20091;-68
2022/07/21 06:59:35;;;;;;;52.10;38.83;;;;;;;26.23;56.53;101711.00;5027825;28;20111;-68
2022/07/21 07:02:01;;;;;;;54.08;39.60;;;;;;;25.97;57.69;101706.00;5028137;28;20029;-69
2022/07/21 07:04:26;;;;;;;54.65;40.25;;;;;;;26.79;56.28;101698.41;5028312;28;20037;-68
2022/07/21 07:06:53;;;;;;;55.58;40.67;;;;;;;26.69;56.66;101703.34;5010217;28;20509;-69
2022/07/21 07:09:19;;;;;;;55.70;36.85;;;;;;;26.49;55.30;101712.09;5028316;28;20556;-68
2022/07/21 07:11:46;;;;;;;54.47;39.00;;;;;;;26.85;55.19;101721.19;5027798;28;20034;-69
2022/07/21 07:14:12;;;;;;;53.55;38.72;;;;;;;26.25;56.20;101717.84;5028397;28;20112;-68
2022/07/21 07:16:37;;;;;;;59.58;39.85;;;;;;;25.45;58.39;101714.75;5027874;28;20092;-69
2022/07/21 07:19:03;;;;;;;54.90;39.30;;;;;;;26.05;57.77;101712.75;5010663;28;20418;-68
2022/07/21 07:21:28;;;;;;;56.35;40.83;;;;;;;26.59;57.02;101711.84;5027880;28;20033;-68
2022/07/21 07:23:54;;;;;;;62.22;40.53;;;;;;;26.05;56.96;101713.56;5009670;28;20046;-68
2022/07/21 07:26:19;;;;;;;52.58;38.88;;;;;;;25.95;58.32;101711.00;5028447;28;20037;-68
2022/07/21 07:28:44;;;;;;;56.58;40.10;;;;;;;26.13;58.65;101714.81;5027847;28;20076;-69
2022/07/21 07:31:10;;;;;;;56.28;39.08;;;;;;;27.06;55.62;101713.22;5028257;28;20084;-70
2022/07/21 07:33:35;;;;;;;52.72;38.67;;;;;;;27.18;55.58;101721.75;5027873;28;20084;-68
2022/07/21 07:36:01;;;;;;;52.88;37.95;;;;;;;26.81;55.09;101714.69;5027609;28;20044;-68
2022/07/21 07:38:26;;;;;;;50.22;36.60;;;;;;;27.51;53.63;101720.34;5027536;28;20760;-71
2022/07/21 07:40:51;;;;;;;52.85;37.20;;;;;;;27.37;53.83;101723.22;5009658;28;20148;-69
2022/07/21 07:43:17;;;;;;;51.08;38.17;;;;;;;27.51;53.52;101723.13;5028916;28;20021;-69
2022/07/21 07:45:42;;;;;;;47.45;37.53;;;;;;;26.77;55.06;101725.50;5028228;28;20088;-69
2022/07/21 07:48:08;;;;;;;55.58;37.97;;;;;;;26.61;55.56;101723.41;5027772;28;20029;-68
2022/07/21 07:50:33;;;;;;;52.42;37.83;;;;;;;26.53;55.64;101724.94;5027412;28;20033;-70
2022/07/21 07:52:58;;;;;;;49.67;36.10;;;;;;;26.04;57.34;101724.91;5027359;28;20033;-68
2022/07/21 07:55:24;;;;;;;47.72;37.65;;;;;;;27.13;54.34;101724.63;5026922;28;20022;-68
2022/07/21 07:57:49;;;;;;;50.20;36.05;;;;;;;26.33;56.68;101719.06;5027788;28;20053;-68
2022/07/21 08:00:17;;;;;;;50.67;36.22;;;;;;;26.39;56.00;101710.38;5029698;28;20037;-68
2022/07/21 08:02:42;;;;;;;48.40;35.97;;;;;;;26.48;56.07;101725.06;5030658;28;20061;-69
2022/07/21 08:05:08;;;;;;;49.95;36.97;;;;;;;26.68;54.50;101718.25;5030542;28;20480;-69
2022/07/21 08:07:38;;;;;;;53.22;38.30;;;;;;;27.03;54.72;101713.88;5029005;28;20116;-71
2022/07/21 08:10:09;;;;;;;50.42;37.92;;;;;;;27.36;53.64;101705.00;5031941;28;20037;-72
2022/07/21 08:12:35;;;;;;;50.00;34.95;;;;;;;27.84;52.49;101705.06;5028180;28;20091;-73
2022/07/21 08:15:01;;;;;;;48.60;34.65;;;;;;;28.53;50.96;101698.56;5029867;28;20064;-73
2022/07/21 08:17:27;;;;;;;45.92;31.75;;;;;;;28.16;50.78;101704.72;5030669;28;20064;-74
2022/07/21 08:19:52;;;;;;;44.25;32.88;;;;;;;27.53;52.02;101701.53;5030773;28;20032;-74
2022/07/21 08:22:17;;;;;;;46.95;31.60;;;;;;;28.61;49.97;101686.72;5031981;28;20037;-72
2022/07/21 08:24:43;;;;;;;42.80;30.27;;;;;;;29.14;49.01;101696.63;5030420;28;20508;-72
2022/07/21 08:27:08;;;;;;;42.47;29.42;;;;;;;29.25;47.89;101700.66;5031945;28;20064;-72
2022/07/21 08:29:34;;;;;;;46.50;29.38;;;;;;;29.05;48.50;101693.03;5030553;28;20401;-71
2022/07/21 08:32:00;;;;;;;36.38;28.10;;;;;;;28.25;49.79;101696.41;5030970;28;20446;-74
2022/07/21 08:34:26;;;;;;;39.58;26.52;;;;;;;28.40;48.30;101695.97;5032476;28;20026;-72
2022/07/21 08:36:51;;;;;;;35.35;26.73;;;;;;;28.49;49.61;101694.00;5031924;28;20132;-72
2022/07/21 08:39:17;;;;;;;34.95;26.15;;;;;;;28.94;48.04;101688.97;5032710;28;20052;-73
2022/07/21 08:41:42;;;;;;;33.35;25.58;;;;;;;28.60;47.51;101682.31;5032460;28;20086;-72
2022/07/21 08:44:10;;;;;;;30.23;23.67;;;;;;;28.53;48.58;101687.50;5032343;28;20045;-72
2022/07/21 08:46:38;;;;;;;35.55;24.23;;;;;;;29.64;45.81;101678.19;5031902;28;20048;-74
2022/07/21 08:49:05;;;;;;;28.70;21.80;;;;;;;29.06;47.72;101678.03;5027144;28;20381;-72
2022/07/21 08:51:34;;;;;;;29.52;22.08;;;;;;;29.06;46.46;101676.09;5025573;28;20100;-73
2022/07/21 08:54:02;;;;;;;22.63;17.23;;;;;;;29.26;44.84;101686.50;5019273;28;20034;-71
2022/07/21 08:56:29;;;;;;;23.00;17.48;;;;;;;30.28;43.91;101689.97;5022647;28;20033;-72
2022/07/21 08:58:55;;;;;;;20.45;16.88;;;;;;;29.64;44.29;101680.19;5026904;28;20048;-72
2022/07/21 09:01:23;;;;;;;26.15;18.13;;;;;;;29.40;44.73;101689.06;5025862;28;20030;-72
2022/07/21 09:03:52;;;;;;;23.05;16.40;;;;;;;29.57;44.83;101688.16;5024967;28;20037;-71
2022/07/21 09:06:18;;;;;;;21.15;15.40;;;;;;;29.29;45.42;101690.53;5020878;28;20042;-72
2022/07/21 09:08:49;;;;;;;29.02;17.55;;;;;;;29.37;45.06;101693.31;5030412;28;20037;-72
2022/07/21 09:11:27;;;;;;;26.23;19.20;;;;;;;28.85;46.27;101693.72;5029058;28;20397;-73
2022/07/21 09:14:10;;;;;;;24.23;18.70;;;;;;;28.49;48.62;101696.78;5022666;28;20116;-73
2022/07/21 09:16:38;;;;;;;20.25;16.63;;;;;;;27.90;49.13;101706.53;5025142;28;20036;-72
2022/07/21 09:19:05;;;;;;;26.60;20.25;;;;;;;27.71;50.57;101706.00;5030466;28;20026;-72
2022/07/21 09:21:32;;;;;;;27.30;22.33;;;;;;;28.68;48.16;101697.28;5028492;28;20030;-72
2022/07/21 09:24:29;;;;;;;33.53;24.15;;;;;;;28.53;49.37;101700.50;5028809;28;20041;-72
2022/07/21 09:27:15;;;;;;;28.10;23.33;;;;;;;27.74;51.22;101711.69;5025913;28;20045;-74
2022/07/21 09:29:58;;;;;;;28.27;20.50;;;;;;;27.33;51.42;101710.34;5029609;28;20030;-71
2022/07/21 09:32:30;;;;;;;27.67;19.42;;;;;;;27.73;50.18;101709.25;5012094;28;20045;-72
2022/07/21 09:34:59;;;;;;;26.08;19.08;;;;;;;27.71;49.55;101717.03;5025677;28;20118;-71
2022/07/21 09:37:24;;;;;;;25.20;20.17;;;;;;;27.17;50.43;101717.34;5030753;28;20037;-72
2022/07/21 09:39:51;;;;;;;22.77;18.50;;;;;;;26.92;51.36;101727.09;5028012;28;20378;-73
2022/07/21 09:42:24;;;;;;;28.58;18.13;;;;;;;27.34;50.13;101725.78;5025701;28;20051;-73
2022/07/21 09:45:01;;;;;;;23.77;17.65;;;;;;;28.32;47.65;101721.66;5026889;28;20134;-72
2022/07/21 09:47:30;;;;;;;28.17;19.02;;;;;;;27.82;49.06;101721.13;5026211;28;20053;-73
2022/07/21 09:49:57;;;;;;;25.23;19.45;;;;;;;27.19;51.10;101717.84;5027716;28;20049;-72
2022/07/21 09:52:30;;;;;;;28.75;20.95;;;;;;;27.12;51.13;101721.06;5026264;28;20171;-72
2022/07/21 09:55:05;;;;;;;28.67;18.92;;;;;;;27.46;50.48;101723.25;5023828;28;20064;-73
2022/07/21 09:57:31;;;;;;;24.70;19.50;;;;;;;27.91;49.98;101721.97;5012199;28;20041;-72
2022/07/21 09:59:58;;;;;;;29.85;21.63;;;;;;;27.65;49.79;101730.19;5025431;28;20033;-72
2022/07/21 10:02:27;;;;;;;26.05;20.10;;;;;;;27.42;50.46;101730.56;5028087;28;20488;-73
2022/07/21 10:05:08;;;;;;;37.57;23.30;;;;;;;27.32;50.70;101730.78;5025685;28;20046;-73
2022/07/21 10:07:38;;;;;;;29.55;22.35;;;;;;;27.17;51.51;101734.72;5026728;28;20443;-73
2022/07/21 10:10:04;;;;;;;37.08;24.80;;;;;;;27.74;49.91;101736.56;5023512;28;20033;-73
2022/07/21 10:12:31;;;;;;;29.95;23.20;;;;;;;27.63;50.85;101740.72;5027361;28;20441;-73
2022/07/21 10:14:56;;;;;;;34.75;23.55;;;;;;;27.44;51.08;101733.81;5022989;28;20193;-74
2022/07/21 10:17:24;;;;;;;38.35;25.52;;;;;;;27.64;50.28;101742.34;5031326;28;20038;-73
2022/07/21 10:20:11;;;;;;;32.03;23.70;;;;;;;27.11;52.11;101740.69;5022065;28;20391;-73
2022/07/21 10:23:01;;;;;;;29.33;22.27;;;;;;;26.31;54.36;101737.84;5021588;28;20049;-74
2022/07/21 10:25:27;;;;;;;33.42;22.58;;;;;;;26.43;54.07;101733.44;5021678;28;20069;-72
2022/07/21 10:28:18;;;;;;;30.08;21.08;;;;;;;26.07;55.30;101733.38;5022940;28;20120;-71
2022/07/21 10:30:49;;;;;;;34.03;22.33;;;;;;;26.90;54.16;101740.38;5015022;28;20041;-73
2022/07/21 10:33:18;;;;;;;31.05;20.77;;;;;;;26.15;56.12;101731.84;5027805;28;20481;-73
2022/07/21 10:35:45;;;;;;;34.13;21.27;;;;;;;26.85;54.20;101744.06;5025483;28;20029;-72
2022/07/21 10:38:27;;;;;;;31.73;21.65;;;;;;;26.39;55.88;101734.38;5004750;28;20112;-72
2022/07/21 10:40:52;;;;;;;28.95;21.70;;;;;;;26.84;54.51;101745.22;5025529;28;20735;-71
2022/07/21 10:43:24;;;;;;;38.95;24.02;;;;;;;27.32;53.43;101744.59;5025798;28;20021;-73
2022/07/21 10:45:49;;;;;;;28.17;19.95;;;;;;;27.10;54.34;101737.13;5004500;28;20045;-73
2022/07/21 10:48:36;;;;;;;29.42;22.02;;;;;;;27.03;54.58;101746.97;5021668;28;20525;-72
2022/07/21 10:51:03;;;;;;;27.85;21.67;;;;;;;27.41;53.08;101739.94;5018992;28;20033;-70
2022/07/21 10:53:28;;;;;;;29.45;20.08;;;;;;;26.42;55.89;101742.00;5022480;28;20067;-72
2022/07/21 10:55:55;;;;;;;24.08;18.67;;;;;;;26.77;54.40;101744.00;5024034;28;20138;-72
2022/07/21 10:58:39;;;;;;;26.10;17.00;;;;;;;27.16;52.91;101744.16;5023721;28;20096;-70
2022/07/21 11:01:14;;;;;;;23.02;17.48;;;;;;;26.43;54.83;101738.97;5021538;28;20052;-72
2022/07/21 11:03:41;;;;;;;21.63;16.98;;;;;;;26.37;54.97;101740.19;5017927;28;20069;-71
2022/07/21 11:06:23;;;;;;;25.60;17.02;;;;;;;26.59;54.58;101742.19;5025860;28;20049;-72
2022/07/21 11:09:04;;;;;;;19.17;14.05;;;;;;;26.34;55.73;101751.81;5025106;28;20719;-73
2022/07/21 11:11:32;;;;;;;;;;;;;;;25.92;57.12;101749.38;5026482;28;20038;-71